Time;durP1;ratioP1;P1;durP2;ratioP2;P2;SDS_P1;SDS_P2;PMS_P1;PMS_P2;Temp;Humidity;BMP_temperature;BMP_pressure;BME280_temperature;BME280_humidity;BME280_pressure;Samples;Min_cycle;Max_cycle;Signal;HPM_P1;HPM_P2
2024/01/15 05:42:46;;;;;;;31.80;16.80;;;;;;;-3.29;98.65;98989.66;107797;1278;23105;-50
2024/01/15 05:45:13;;;;;;;39.90;18.60;;;;;;;-3.29;98.23;98994.59;111702;1261;23550;-44
2024/01/15 05:47:40;;;;;;;30.20;16.70;;;;;;;-3.30;98.14;98993.55;112005;1254;23127;-50
2024/01/15 05:50:08;;;;;;;34.80;17.40;;;;;;;-3.30;97.92;98987.92;111448;1250;22510;-43
2024/01/15 05:52:35;;;;;;;31.70;17.00;;;;;;;-3.29;97.77;98989.67;112039;1259;22366;-51
2024/01/15 05:55:02;;;;;;;34.50;17.90;;;;;;;-3.27;97.44;98986.30;110174;1251;23247;-49
2024/01/15 05:57:29;;;;;;;36.70;18.00;;;;;;;-3.25;97.53;98990.79;110312;1248;22171;-45
2024/01/15 05:59:56;;;;;;;32.80;16.60;;;;;;;-3.23;97.42;98988.15;111845;1251;22616;-51
2024/01/15 06:02:23;;;;;;;31.50;17.40;;;;;;;-3.22;97.39;98984.11;111036;1249;22484;-51
2024/01/15 06:04:49;;;;;;;31.40;17.40;;;;;;;-3.20;96.91;98974.92;111047;1246;24017;-44
2024/01/15 06:07:16;;;;;;;33.80;19.00;;;;;;;-3.20;96.72;98981.92;110460;1249;22185;-50
2024/01/15 06:09:43;;;;;;;30.30;17.50;;;;;;;-3.22;96.57;98979.31;111960;1251;22482;-44
2024/01/15 06:12:09;;;;;;;39.00;21.70;;;;;;;-3.23;96.20;98986.77;111975;1250;22460;-50
2024/01/15 06:14:36;;;;;;;40.90;21.20;;;;;;;-3.25;96.05;98996.29;111914;1251;22785;-50
2024/01/15 06:17:03;;;;;;;36.70;20.70;;;;;;;-3.25;95.79;99001.41;111917;1251;22720;-44
2024/01/15 06:19:30;;;;;;;44.00;23.70;;;;;;;-3.22;95.44;98995.52;111927;1261;22447;-51
2024/01/15 06:21:57;;;;;;;68.10;34.80;;;;;;;-3.14;95.25;99001.58;111789;1254;22334;-51
2024/01/15 06:24:24;;;;;;;44.70;21.90;;;;;;;-3.05;95.01;99005.79;111704;1259;22293;-53
2024/01/15 06:26:51;;;;;;;32.50;16.90;;;;;;;-2.98;94.68;99000.95;111291;1261;22912;-55
2024/01/15 06:29:19;;;;;;;35.70;18.60;;;;;;;-2.91;94.52;98999.25;111092;1261;22508;-43
2024/01/15 06:31:46;;;;;;;31.40;17.30;;;;;;;-2.87;93.89;99004.86;111748;1255;22383;-43
2024/01/15 06:34:14;;;;;;;29.30;16.80;;;;;;;-2.86;93.76;99003.86;112537;1250;22744;-50
2024/01/15 06:36:42;;;;;;;33.00;16.60;;;;;;;-2.88;93.45;99005.02;112412;1248;22514;-52
2024/01/15 06:39:15;;;;;;;30.60;16.60;;;;;;;-2.88;93.45;99009.09;111693;1245;22888;-45
2024/01/15 06:41:48;;;;;;;30.40;16.70;;;;;;;-2.89;93.32;99016.09;112719;1241;22336;-52
2024/01/15 06:44:21;;;;;;;29.60;16.30;;;;;;;-2.89;93.39;99018.98;112676;1247;22818;-44
2024/01/15 06:47:06;;;;;;;28.60;15.60;;;;;;;-2.86;93.53;99015.80;112662;1250;22253;-51
2024/01/15 06:49:39;;;;;;;32.00;16.00;;;;;;;-2.83;93.75;99017.11;112592;1238;22248;-52
2024/01/15 06:52:12;;;;;;;29.90;15.90;;;;;;;-2.82;93.27;99016.98;112694;1240;22299;-46
2024/01/15 07:01:14;;;;;;;37.10;18.20;;;;;;;-3.00;92.34;99008.05;112639;1248;22248;-45
2024/01/15 07:03:59;;;;;;;35.40;18.80;;;;;;;-3.02;92.40;99004.73;112542;1246;22412;-45
2024/01/15 07:07:08;;;;;;;32.40;16.60;;;;;;;-3.01;92.62;99009.52;112229;1250;23465;-52
2024/01/15 07:09:53;;;;;;;;;;;;;;;-3.03;92.22;99008.45;112615;1245;22390;-44
2024/01/15 07:12:36;;;;;;;29.30;16.40;;;;;;;-3.06;92.26;98999.31;112548;1250;22377;-44
2024/01/15 07:16:02;;;;;;;35.80;17.20;;;;;;;-3.05;92.38;98996.26;112499;1250;22273;-44
2024/01/15 07:22:17;;;;;;;36.00;17.30;;;;;;;-2.91;92.33;98995.68;112701;1238;23087;-44
2024/01/15 07:24:44;;;;;;;32.80;18.00;;;;;;;-2.83;92.23;98995.27;112648;1250;22682;-49
2024/01/15 07:27:18;;;;;;;33.80;17.00;;;;;;;-2.74;92.12;98993.88;112708;1239;22411;-50
2024/01/15 07:29:48;;;;;;;32.50;17.40;;;;;;;-2.64;91.63;98996.92;112590;1236;158245;-47
2024/01/15 07:32:15;;;;;;;35.30;18.60;;;;;;;-2.56;90.98;98993.21;112458;1243;22411;-51
2024/01/15 07:34:42;;;;;;;29.40;16.90;;;;;;;-2.49;90.82;98988.84;112792;1238;22280;-50
2024/01/15 07:37:09;;;;;;;29.30;16.40;;;;;;;-2.38;90.36;98989.85;112146;1236;22410;-51
2024/01/15 07:39:36;;;;;;;38.40;20.30;;;;;;;-2.29;90.13;98987.21;112781;1242;22395;-50
2024/01/15 07:42:03;;;;;;;38.30;19.80;;;;;;;-2.21;89.07;98989.34;112825;1238;22374;-49
2024/01/15 07:44:30;;;;;;;33.90;16.80;;;;;;;-2.16;88.63;98989.83;112780;1238;22498;-49
2024/01/15 07:46:57;;;;;;;30.30;18.00;;;;;;;-2.12;87.86;98998.66;112679;1236;23335;-44
2024/01/15 07:49:23;;;;;;;41.20;22.70;;;;;;;-2.11;87.53;99000.23;112684;1250;22985;-43
2024/01/15 07:51:51;;;;;;;43.40;22.40;;;;;;;-2.10;87.63;99004.86;111953;1248;22598;-50
2024/01/15 07:54:24;;;;;;;47.40;26.90;;;;;;;-2.05;88.29;99003.66;111461;1250;23261;-44
2024/01/15 07:57:03;;;;;;;55.10;30.90;;;;;;;-1.98;88.18;99003.19;112311;1250;22391;-50
2024/01/15 07:59:31;;;;;;;47.20;25.90;;;;;;;-1.91;87.98;99008.33;112556;1250;23211;-50
2024/01/15 08:01:59;;;;;;;42.40;23.50;;;;;;;-1.84;87.97;99007.16;112577;1240;22369;-50
2024/01/15 08:04:28;;;;;;;47.20;25.80;;;;;;;-1.78;86.99;99010.77;111879;1250;22620;-44
2024/01/15 08:07:03;;;;;;;49.90;26.20;;;;;;;-1.77;86.06;99009.77;112360;1249;22730;-44
2024/01/15 08:09:30;;;;;;;38.10;20.80;;;;;;;-1.80;85.65;99010.71;111590;1250;22410;-45
2024/01/15 08:12:05;;;;;;;36.50;20.20;;;;;;;-1.81;85.51;99008.63;112437;1249;23119;-43
2024/01/15 08:14:32;;;;;;;42.00;20.90;;;;;;;-1.78;85.94;99009.75;111525;1238;22487;-44
2024/01/15 08:17:01;;;;;;;33.80;19.10;;;;;;;-1.71;86.46;99017.98;111592;1250;22388;-50
2024/01/15 08:19:34;;;;;;;30.20;16.60;;;;;;;-1.62;86.46;99016.02;112034;1235;22421;-44
2024/01/15 08:22:09;;;;;;;39.80;20.90;;;;;;;-1.56;86.74;99011.89;111091;1249;22706;-50
2024/01/15 08:24:51;;;;;;;38.50;19.60;;;;;;;-1.47;86.26;99002.73;111266;1250;22512;-47
2024/01/15 08:27:24;;;;;;;36.40;19.70;;;;;;;-1.39;86.15;98998.18;112352;1250;22931;-45
2024/01/15 08:29:54;;;;;;;43.70;24.80;;;;;;;-1.26;85.78;98989.94;111319;1249;22578;-51
2024/01/15 08:32:26;;;;;;;42.10;23.30;;;;;;;-1.14;85.19;98983.95;111416;1249;22482;-46
2024/01/15 08:34:56;;;;;;;43.20;23.90;;;;;;;-1.01;85.01;98981.86;112206;1250;22588;-45
2024/01/15 08:37:25;;;;;;;42.00;22.50;;;;;;;-0.89;84.32;98978.41;111945;1250;22426;-45
2024/01/15 08:40:03;;;;;;;47.00;25.40;;;;;;;-0.79;83.51;98975.91;111923;1250;22553;-50
2024/01/15 08:42:38;;;;;;;53.50;29.90;;;;;;;-0.73;83.44;98969.55;112047;1250;25428;-53
2024/01/15 08:45:26;;;;;;;54.10;30.50;;;;;;;-0.67;83.74;98964.20;111530;1250;22997;-50
2024/01/15 08:48:00;;;;;;;49.20;27.30;;;;;;;-0.58;82.89;98972.46;111827;1249;23035;-45
2024/01/15 08:50:38;;;;;;;47.90;25.60;;;;;;;-0.54;82.55;98968.45;112695;1242;22828;-45
2024/01/15 08:53:17;;;;;;;49.20;24.70;;;;;;;-0.47;82.30;98966.89;112641;1250;22498;-44
2024/01/15 08:55:50;;;;;;;45.30;23.90;;;;;;;-0.39;81.81;98965.37;112583;1250;22381;-44
2024/01/15 08:58:24;;;;;;;39.20;23.30;;;;;;;-0.33;81.47;98960.89;112506;1250;22728;-47
2024/01/15 09:00:58;;;;;;;45.50;22.50;;;;;;;-0.22;81.75;98956.84;111996;1237;22379;-51
2024/01/15 09:03:42;;;;;;;46.10;24.60;;;;;;;-0.06;81.34;98961.98;112013;1250;22440;-45
2024/01/15 09:06:28;;;;;;;42.10;23.80;;;;;;;0.16;81.05;98954.38;111632;1250;23252;-51
2024/01/15 09:09:16;;;;;;;42.60;23.50;;;;;;;0.40;80.82;98952.10;111935;1250;23345;-45
2024/01/15 09:11:49;;;;;;;39.80;22.70;;;;;;;0.59;80.19;98954.86;112650;1250;22350;-46
2024/01/15 09:14:16;;;;;;;37.60;22.50;;;;;;;0.70;79.10;98956.09;112507;1248;22288;-44
2024/01/15 09:16:50;;;;;;;36.00;20.00;;;;;;;0.80;79.06;98954.20;112800;1239;22388;-45
2024/01/15 09:19:17;;;;;;;36.90;21.20;;;;;;;0.90;78.17;98958.50;112738;1250;22413;-45
2024/01/15 09:21:45;;;;;;;39.20;21.10;;;;;;;0.94;77.82;98956.16;112823;1250;22379;-52
2024/01/15 09:24:12;;;;;;;39.50;21.20;;;;;;;0.99;77.76;98954.02;112030;1250;22534;-44
2024/01/15 09:26:53;;;;;;;41.80;23.10;;;;;;;1.10;77.81;98955.06;112611;1250;22305;-47
2024/01/15 09:29:23;;;;;;;39.20;21.90;;;;;;;1.24;77.83;98952.89;112562;1249;22412;-46
2024/01/15 09:31:53;;;;;;;39.70;22.00;;;;;;;1.42;77.97;98950.59;112515;1250;22559;-52
2024/01/15 09:34:20;;;;;;;32.20;19.80;;;;;;;1.62;77.25;98942.96;111877;1246;24149;-52
2024/01/15 09:36:48;;;;;;;25.80;16.00;;;;;;;1.77;76.30;98940.77;112512;1250;23198;-46
2024/01/15 10:04:14;;;;;;;22.60;13.90;;;;;;;1.54;72.74;98920.17;111782;1250;22854;-46
2024/01/15 10:07:26;;;;;;;18.80;12.50;;;;;;;1.59;72.80;98914.58;112516;1250;23769;-45
2024/01/15 10:10:08;;;;;;;19.70;12.30;;;;;;;1.58;71.87;98904.94;112507;1250;22920;-51
2024/01/15 10:12:39;;;;;;;22.90;12.30;;;;;;;1.51;71.20;98900.20;110742;1250;26347;-51
2024/01/15 10:15:18;;;;;;;21.70;12.80;;;;;;;1.41;70.88;98904.17;111820;1250;23556;-46
2024/01/15 10:17:56;;;;;;;20.60;12.10;;;;;;;1.36;71.29;98908.91;112083;1249;23302;-45
2024/01/15 10:20:32;;;;;;;19.10;11.10;;;;;;;1.40;71.30;98908.29;111113;1250;22543;-44
2024/01/15 10:23:04;;;;;;;22.30;13.90;;;;;;;1.52;71.71;98899.70;111223;1250;25964;-51
2024/01/15 10:25:35;;;;;;;19.80;12.40;;;;;;;1.70;71.66;98897.36;112275;1249;22496;-51
2024/01/15 10:28:03;;;;;;;21.30;12.50;;;;;;;1.87;71.33;98896.38;112009;1250;22494;-45
2024/01/15 10:30:37;;;;;;;20.60;11.90;;;;;;;1.99;70.68;98890.50;112496;1250;22901;-52
2024/01/15 10:33:17;;;;;;;21.90;13.80;;;;;;;2.05;70.00;98897.11;112446;1250;25237;-47
2024/01/15 10:51:44;;;;;;;20.30;12.80;;;;;;;2.14;68.39;98893.95;112282;1249;22324;-46
2024/01/15 10:54:18;;;;;;;23.00;13.90;;;;;;;1.98;68.33;98884.47;112410;1250;23017;-46
2024/01/15 10:56:59;;;;;;;27.60;15.00;;;;;;;1.84;68.79;98882.06;112433;1250;22341;-48
2024/01/15 10:59:33;;;;;;;24.90;13.50;;;;;;;1.74;68.87;98883.33;112608;1250;22881;-47
2024/01/15 11:02:10;;;;;;;20.10;12.50;;;;;;;1.66;68.76;98872.90;112534;1250;22275;-47
2024/01/15 11:04:46;;;;;;;23.40;14.60;;;;;;;1.62;68.78;98865.62;112537;1250;22414;-54
2024/01/15 11:07:14;;;;;;;21.40;12.80;;;;;;;1.67;68.85;98866.39;112341;1250;22545;-48
2024/01/15 11:09:41;;;;;;;24.90;14.40;;;;;;;1.75;68.89;98861.50;112670;1250;22390;-54
2024/01/15 11:12:12;;;;;;;21.60;14.30;;;;;;;1.91;68.47;98865.30;112737;1238;22367;-54
2024/01/15 11:14:40;;;;;;;25.60;14.90;;;;;;;2.05;67.73;98864.09;112720;1246;22820;-54
2024/01/15 11:17:07;;;;;;;28.70;16.30;;;;;;;2.20;67.50;98864.60;112715;1250;23048;-54
2024/01/15 11:19:43;;;;;;;24.50;16.10;;;;;;;2.40;67.65;98865.14;112557;1242;23241;-53
2024/01/15 11:22:29;;;;;;;26.80;16.30;;;;;;;2.63;66.40;98861.41;112659;1250;22333;-54
2024/01/15 11:25:03;;;;;;;30.50;19.10;;;;;;;2.88;66.41;98862.81;112512;1250;22419;-47
2024/01/15 11:27:47;;;;;;;31.20;20.40;;;;;;;3.10;66.23;98863.84;111780;1250;22395;-55
2024/01/15 11:30:19;;;;;;;28.60;19.00;;;;;;;3.28;65.40;98861.73;112183;1250;23570;-53
2024/01/15 11:32:49;;;;;;;28.80;19.00;;;;;;;3.29;64.46;98857.77;111980;1250;22468;-46
2024/01/15 11:35:18;;;;;;;26.70;17.60;;;;;;;3.19;64.15;98857.19;111432;1250;22550;-45
2024/01/15 11:37:54;;;;;;;26.30;18.20;;;;;;;3.10;64.14;98851.63;112405;1250;22893;-50
2024/01/15 11:40:34;;;;;;;27.60;16.80;;;;;;;2.96;63.68;98839.12;112347;1245;22426;-45
2024/01/15 11:43:02;;;;;;;27.30;17.20;;;;;;;2.84;64.40;98831.62;112486;1250;22379;-43
2024/01/15 11:45:33;;;;;;;28.40;17.30;;;;;;;2.80;64.53;98836.59;112171;1250;22259;-44
2024/01/15 11:48:12;;;;;;;25.90;16.50;;;;;;;2.78;64.60;98836.56;112327;1250;22376;-44
2024/01/15 11:50:49;;;;;;;28.40;16.30;;;;;;;2.77;64.69;98839.83;112514;1244;22407;-44
2024/01/15 11:53:45;;;;;;;26.10;16.50;;;;;;;2.67;64.68;98841.80;111943;1250;22613;-45
2024/01/15 11:56:15;;;;;;;26.90;16.20;;;;;;;2.65;65.42;98835.59;112354;1250;23267;-45
2024/01/15 11:58:43;;;;;;;25.20;16.30;;;;;;;2.65;65.05;98835.08;112554;1250;22400;-45
2024/01/15 12:01:11;;;;;;;30.00;18.30;;;;;;;2.56;65.03;98835.17;112321;1250;23544;-51
2024/01/15 12:03:38;;;;;;;27.40;17.50;;;;;;;2.46;66.01;98830.95;112442;1250;23025;-44
2024/01/15 12:06:08;;;;;;;33.10;19.80;;;;;;;2.39;66.15;98827.45;112629;1250;23256;-44
2024/01/15 12:08:36;;;;;;;29.60;17.90;;;;;;;2.32;66.42;98824.80;112335;1250;22428;-49
2024/01/15 12:11:11;;;;;;;27.50;17.10;;;;;;;2.27;66.77;98825.95;112797;1250;23057;-50
2024/01/15 12:13:40;;;;;;;32.50;17.80;;;;;;;2.30;67.10;98830.45;112305;1250;22414;-44
2024/01/15 12:16:07;;;;;;;27.10;16.30;;;;;;;2.37;66.94;98818.31;112687;1250;22402;-45
2024/01/15 12:18:34;;;;;;;27.80;16.40;;;;;;;2.43;67.22;98819.56;112442;1250;22976;-51
2024/01/15 12:21:01;;;;;;;23.80;15.20;;;;;;;2.48;67.18;98815.14;112547;1250;22438;-50
2024/01/15 12:23:28;;;;;;;27.10;16.60;;;;;;;2.55;67.21;98815.55;112641;1250;22921;-46
2024/01/15 12:25:55;;;;;;;29.30;17.30;;;;;;;2.53;67.18;98813.64;112674;1250;22251;-46
2024/01/15 12:28:22;;;;;;;27.50;16.80;;;;;;;2.42;67.84;98812.50;112579;1250;23544;-46
2024/01/15 12:30:49;;;;;;;31.70;17.60;;;;;;;2.32;68.35;98810.86;112316;1250;22405;-45
2024/01/15 12:33:18;;;;;;;29.80;16.80;;;;;;;2.26;68.59;98811.84;112656;1250;22515;-45
2024/01/15 12:35:47;;;;;;;26.40;15.50;;;;;;;2.22;68.75;98812.48;112632;1250;22457;-46
2024/01/15 12:38:13;;;;;;;24.20;15.30;;;;;;;2.13;68.58;98804.30;112592;1250;22414;-50
2024/01/15 12:40:40;;;;;;;22.40;14.50;;;;;;;1.98;68.37;98809.48;112649;1250;22936;-49
2024/01/15 12:43:07;;;;;;;27.80;16.60;;;;;;;1.77;69.02;98816.48;112424;1250;23416;-44
2024/01/15 12:45:35;;;;;;;24.90;15.90;;;;;;;1.61;69.58;98822.65;112718;1250;22406;-45
2024/01/15 12:48:03;;;;;;;24.60;14.70;;;;;;;1.49;69.90;98814.59;112433;1250;22431;-44
2024/01/15 12:50:30;;;;;;;25.40;15.60;;;;;;;1.36;70.89;98808.06;112701;1239;22263;-44
2024/01/15 12:52:59;;;;;;;28.30;15.60;;;;;;;1.23;71.44;98808.75;112278;1250;24160;-51
2024/01/15 12:55:26;;;;;;;24.20;14.50;;;;;;;1.08;71.87;98805.27;112630;1250;22347;-45
2024/01/15 12:57:54;;;;;;;23.60;14.20;;;;;;;0.95;72.23;98798.39;112712;1250;22699;-45
2024/01/15 13:00:21;;;;;;;25.60;14.50;;;;;;;0.80;72.53;98789.58;112710;1250;22369;-44
2024/01/15 13:02:49;;;;;;;28.80;15.50;;;;;;;0.64;73.21;98791.76;112686;1250;22465;-45
2024/01/15 13:05:16;;;;;;;26.30;14.90;;;;;;;0.49;73.75;98770.05;112713;1250;22393;-46
2024/01/15 13:07:44;;;;;;;25.20;14.30;;;;;;;0.32;74.40;98762.23;112704;1250;22428;-45
2024/01/15 13:10:11;;;;;;;27.60;14.70;;;;;;;0.16;75.26;98764.37;112793;1250;22364;-44
2024/01/15 13:12:40;;;;;;;23.40;14.20;;;;;;;0.05;76.00;98764.87;112789;1250;22387;-50
2024/01/15 13:15:11;;;;;;;32.10;15.30;;;;;;;-0.03;76.59;98753.94;112737;1250;22347;-51
2024/01/15 13:17:42;;;;;;;24.70;14.60;;;;;;;-0.06;77.62;98750.80;112692;1250;22935;-46
2024/01/15 13:20:10;;;;;;;29.80;16.20;;;;;;;0.17;77.67;98751.01;112640;1250;22825;-50
2024/01/15 13:22:40;;;;;;;26.20;15.60;;;;;;;0.64;76.83;98750.38;112703;1250;23194;-51
2024/01/15 13:25:07;;;;;;;32.00;17.20;;;;;;;0.99;75.81;98755.70;112713;1250;22384;-51
2024/01/15 13:27:37;;;;;;;29.20;17.40;;;;;;;1.03;74.84;98751.97;112724;1250;22404;-55
2024/01/15 13:30:07;;;;;;;35.00;20.30;;;;;;;0.86;75.19;98746.77;112687;1250;23035;-46
2024/01/15 13:32:35;;;;;;;29.80;16.70;;;;;;;0.65;75.70;98745.95;112731;1250;22557;-50
2024/01/15 13:35:05;;;;;;;31.80;17.20;;;;;;;0.49;76.28;98735.23;112684;1250;22998;-46
2024/01/15 13:37:32;;;;;;;34.00;18.50;;;;;;;0.38;76.88;98737.98;112438;1250;22339;-45
2024/01/15 13:39:58;;;;;;;33.60;18.60;;;;;;;0.24;77.41;98738.61;112661;1250;23185;-44
2024/01/15 13:42:27;;;;;;;33.90;20.00;;;;;;;0.08;78.13;98740.74;112765;1250;23247;-45
2024/01/15 13:44:54;;;;;;;33.50;18.90;;;;;;;0.05;78.76;98740.17;112711;1250;22670;-45
2024/01/15 13:47:21;;;;;;;31.80;17.30;;;;;;;0.22;78.74;98740.98;112741;1250;22845;-49
2024/01/15 13:49:47;;;;;;;29.80;18.00;;;;;;;0.34;78.10;98742.87;112700;1250;23281;-45
2024/01/15 13:52:14;;;;;;;32.50;18.80;;;;;;;0.24;77.99;98755.41;112748;1243;22354;-44
2024/01/15 13:54:42;;;;;;;35.50;19.60;;;;;;;0.02;78.67;98756.08;112539;1250;23018;-49
2024/01/15 13:57:17;;;;;;;31.00;17.20;;;;;;;-0.19;79.26;98754.48;112736;1250;22514;-44
2024/01/15 13:59:45;;;;;;;31.60;18.70;;;;;;;-0.35;80.09;98761.40;112798;1250;22451;-44
2024/01/15 14:02:11;;;;;;;29.50;16.70;;;;;;;-0.47;80.33;98768.36;112844;1250;22412;-43
2024/01/15 14:04:41;;;;;;;32.10;17.70;;;;;;;-0.59;80.71;98774.81;112792;1250;23300;-50
2024/01/15 14:07:09;;;;;;;30.80;16.50;;;;;;;-0.70;81.17;98778.16;112758;1250;23177;-50
2024/01/15 14:09:37;;;;;;;29.20;16.60;;;;;;;-0.81;81.72;98775.89;112816;1250;23070;-45
2024/01/15 14:12:05;;;;;;;31.80;16.20;;;;;;;-0.89;81.90;98777.95;112848;1250;22423;-44
2024/01/15 14:14:32;;;;;;;26.70;16.00;;;;;;;-0.96;82.22;98777.27;112888;1250;22465;-45
2024/01/15 14:16:58;;;;;;;33.60;18.20;;;;;;;-1.02;82.48;98779.54;111890;1250;22585;-50
2024/01/15 14:19:25;;;;;;;32.20;18.60;;;;;;;-1.09;82.64;98776.66;112251;1250;22417;-44
2024/01/15 14:21:52;;;;;;;32.50;18.10;;;;;;;-1.14;82.96;98774.84;112887;1250;22427;-44
2024/01/15 14:24:19;;;;;;;35.40;20.10;;;;;;;-1.20;83.20;98773.00;112867;1250;22368;-45
2024/01/15 14:26:47;;;;;;;38.70;20.90;;;;;;;-1.25;83.45;98778.18;112864;1250;22367;-44
2024/01/15 14:29:14;;;;;;;34.00;18.10;;;;;;;-1.30;83.38;98777.38;112680;1250;22379;-49
2024/01/15 14:31:41;;;;;;;40.90;20.10;;;;;;;-1.34;84.17;98778.15;112915;1250;22235;-50
2024/01/15 14:34:11;;;;;;;37.50;19.80;;;;;;;-1.38;84.54;98776.00;112888;1249;22497;-46
2024/01/15 14:36:38;;;;;;;35.80;19.40;;;;;;;-1.42;84.33;98776.76;112838;1250;22276;-50
2024/01/15 14:39:05;;;;;;;38.70;22.20;;;;;;;-1.44;84.41;98773.11;112873;1250;22255;-49
2024/01/15 14:41:32;;;;;;;34.10;19.90;;;;;;;-1.46;84.93;98771.36;112895;1250;23135;-45
2024/01/15 14:43:59;;;;;;;40.20;22.90;;;;;;;-1.47;84.82;98769.79;112878;1234;22928;-50
2024/01/15 14:46:27;;;;;;;39.90;22.70;;;;;;;-1.48;85.09;98767.56;112596;1250;22578;-49
2024/01/15 14:48:54;;;;;;;39.10;21.30;;;;;;;-1.50;85.36;98767.17;112470;1250;22409;-45
2024/01/15 14:51:21;;;;;;;36.30;20.90;;;;;;;-1.50;85.52;98775.36;112869;1250;22389;-45
2024/01/15 14:53:48;;;;;;;41.00;23.30;;;;;;;-1.52;85.71;98767.42;112764;1250;22516;-48
2024/01/15 14:56:15;;;;;;;35.60;19.50;;;;;;;-1.54;86.03;98755.77;110274;1250;22511;-50
2024/01/15 14:58:45;;;;;;;34.30;20.10;;;;;;;-1.57;86.55;98748.35;110451;1250;22533;-45
2024/01/15 15:01:12;;;;;;;29.20;15.50;;;;;;;-1.60;86.23;98749.83;110200;1250;22576;-46
2024/01/15 15:03:40;;;;;;;29.00;16.50;;;;;;;-1.66;86.50;98741.48;110224;1250;22515;-45
2024/01/15 15:06:07;;;;;;;28.30;15.90;;;;;;;-1.71;87.25;98738.96;109897;1250;22562;-46
2024/01/15 15:08:36;;;;;;;33.30;17.50;;;;;;;-1.76;87.43;98740.55;110621;1250;22582;-50
2024/01/15 15:11:04;;;;;;;29.90;16.50;;;;;;;-1.80;87.70;98745.41;110387;1250;22502;-45
2024/01/15 15:13:31;;;;;;;29.40;15.50;;;;;;;-1.83;88.08;98747.73;110213;1250;22507;-50
2024/01/15 15:16:12;;;;;;;31.20;16.30;;;;;;;-1.86;88.63;98745.62;110171;1250;22517;-45
